sensor_id;sensor_type;location;lat;lon;timestamp;P1;durP1;ratioP1;P2;durP2;ratioP2
38427;SDS011;24211;49.980;19.776;2022-12-22T01:25:17;32.53;;;12.75;;
38427;SDS011;24211;49.980;19.776;2022-12-22T02:53:00;33.20;;;13.05;;
38427;SDS011;24211;49.980;19.776;2022-12-22T06:49:37;20.90;;;9.40;;
38427;SDS011;24211;49.980;19.776;2022-12-22T06:52:06;24.90;;;10.05;;
38427;SDS011;24211;49.980;19.776;2022-12-22T06:54:34;24.73;;;10.25;;
38427;SDS011;24211;49.980;19.776;2022-12-22T06:57:01;26.05;;;10.63;;
38427;SDS011;24211;49.980;19.776;2022-12-22T06:59:28;26.58;;;11.07;;
38427;SDS011;24211;49.980;19.776;2022-12-22T07:01:55;28.40;;;11.35;;
38427;SDS011;24211;49.980;19.776;2022-12-22T07:04:22;26.52;;;11.48;;
38427;SDS011;24211;49.980;19.776;2022-12-22T07:06:50;27.63;;;11.00;;
38427;SDS011;24211;49.980;19.776;2022-12-22T07:09:17;27.42;;;11.18;;
38427;SDS011;24211;49.980;19.776;2022-12-22T07:11:44;27.42;;;12.10;;
38427;SDS011;24211;49.980;19.776;2022-12-22T07:14:11;24.83;;;10.90;;
38427;SDS011;24211;49.980;19.776;2022-12-22T07:16:38;28.67;;;11.73;;
38427;SDS011;24211;49.980;19.776;2022-12-22T07:19:05;29.33;;;12.85;;
38427;SDS011;24211;49.980;19.776;2022-12-22T07:21:33;34.20;;;13.25;;
38427;SDS011;24211;49.980;19.776;2022-12-22T07:23:59;32.85;;;13.25;;
38427;SDS011;24211;49.980;19.776;2022-12-22T07:26:27;42.33;;;17.75;;
38427;SDS011;24211;49.980;19.776;2022-12-22T07:28:54;81.63;;;29.30;;
38427;SDS011;24211;49.980;19.776;2022-12-22T07:31:21;96.18;;;36.80;;
38427;SDS011;24211;49.980;19.776;2022-12-22T07:33:48;92.70;;;34.83;;
38427;SDS011;24211;49.980;19.776;2022-12-22T07:36:17;80.97;;;29.77;;
38427;SDS011;24211;49.980;19.776;2022-12-22T07:38:47;86.13;;;32.95;;
38427;SDS011;24211;49.980;19.776;2022-12-22T07:41:17;60.45;;;24.35;;
38427;SDS011;24211;49.980;19.776;2022-12-22T07:44:05;91.55;;;34.45;;
38427;SDS011;24211;49.980;19.776;2022-12-22T07:46:34;48.72;;;20.02;;
38427;SDS011;24211;49.980;19.776;2022-12-22T07:49:05;66.00;;;26.27;;
38427;SDS011;24211;49.980;19.776;2022-12-22T07:51:54;105.80;;;40.30;;
38427;SDS011;24211;49.980;19.776;2022-12-22T07:54:23;124.13;;;43.40;;
38427;SDS011;24211;49.980;19.776;2022-12-22T09:57:04;120.07;;;45.60;;
38427;SDS011;24211;49.980;19.776;2022-12-22T11:15:26;135.60;;;45.20;;
38427;SDS011;24211;49.980;19.776;2022-12-22T11:45:43;55.33;;;22.55;;
38427;SDS011;24211;49.980;19.776;2022-12-22T11:56:44;123.78;;;44.33;;
38427;SDS011;24211;49.980;19.776;2022-12-22T13:22:42;159.38;;;55.63;;
38427;SDS011;24211;49.980;19.776;2022-12-22T16:41:04;20.90;;;8.70;;
38427;SDS011;24211;49.980;19.776;2022-12-22T16:43:43;24.17;;;10.02;;
38427;SDS011;24211;49.980;19.776;2022-12-22T17:21:55;17.55;;;7.53;;
38427;SDS011;24211;49.980;19.776;2022-12-22T18:06:06;22.55;;;8.43;;
38427;SDS011;24211;49.980;19.776;2022-12-22T19:06:12;32.80;;;11.80;;
38427;SDS011;24211;49.980;19.776;2022-12-22T19:08:43;31.88;;;11.90;;
38427;SDS011;24211;49.980;19.776;2022-12-22T19:11:13;39.08;;;14.88;;
38427;SDS011;24211;49.980;19.776;2022-12-22T19:13:50;30.77;;;13.15;;
38427;SDS011;24211;49.980;19.776;2022-12-22T19:16:19;37.55;;;14.57;;
38427;SDS011;24211;49.980;19.776;2022-12-22T19:39:51;40.58;;;16.15;;
38427;SDS011;24211;49.980;19.776;2022-12-22T19:42:20;50.42;;;18.38;;
38427;SDS011;24211;49.980;19.776;2022-12-22T19:44:49;30.75;;;10.60;;
38427;SDS011;24211;49.980;19.776;2022-12-22T19:47:20;27.48;;;11.73;;
38427;SDS011;24211;49.980;19.776;2022-12-22T19:49:49;30.58;;;11.80;;
38427;SDS011;24211;49.980;19.776;2022-12-22T19:52:17;45.50;;;16.23;;
38427;SDS011;24211;49.980;19.776;2022-12-22T20:00:04;30.52;;;10.88;;
38427;SDS011;24211;49.980;19.776;2022-12-22T20:02:37;28.55;;;10.48;;
38427;SDS011;24211;49.980;19.776;2022-12-22T20:05:08;23.70;;;9.38;;
38427;SDS011;24211;49.980;19.776;2022-12-22T23:29:42;10.20;;;3.88;;
38427;SDS011;24211;49.980;19.776;2022-12-22T23:32:10;9.50;;;3.83;;
38427;SDS011;24211;49.980;19.776;2022-12-22T23:34:37;11.07;;;4.20;;
38427;SDS011;24211;49.980;19.776;2022-12-22T23:37:05;9.45;;;3.95;;
38427;SDS011;24211;49.980;19.776;2022-12-22T23:39:38;10.63;;;4.07;;
38427;SDS011;24211;49.980;19.776;2022-12-22T23:42:06;9.15;;;3.58;;
38427;SDS011;24211;49.980;19.776;2022-12-22T23:44:33;10.10;;;4.30;;
38427;SDS011;24211;49.980;19.776;2022-12-22T23:47:01;10.52;;;4.50;;
38427;SDS011;24211;49.980;19.776;2022-12-22T23:49:28;13.30;;;4.97;;
38427;SDS011;24211;49.980;19.776;2022-12-22T23:51:56;13.35;;;5.47;;
38427;SDS011;24211;49.980;19.776;2022-12-22T23:54:23;14.43;;;5.70;;
